createdAt,value
2017-12-02T00:00:46.620Z,100363.95
2017-12-02T00:03:13.010Z,100371.45
2017-12-02T00:05:39.354Z,100373.14
2017-12-02T00:08:05.709Z,100371.66
2017-12-02T00:10:32.028Z,100375.96
2017-12-02T00:12:58.306Z,100372.16
2017-12-02T00:15:25.508Z,100365.82
2017-12-02T00:17:51.860Z,100366.41
2017-12-02T00:20:18.150Z,100375.82
2017-12-02T00:22:44.450Z,100378.03
2017-12-02T00:25:10.800Z,100375.00
2017-12-02T00:27:37.126Z,100373.98
2017-12-02T00:30:03.465Z,100375.43
2017-12-02T00:32:29.802Z,100376.30
2017-12-02T00:34:56.104Z,100375.45
2017-12-02T00:37:23.173Z,100392.02
2017-12-02T00:39:49.486Z,100390.78
2017-12-02T00:42:16.521Z,100385.77
2017-12-02T00:44:42.795Z,100388.95
2017-12-02T00:47:09.101Z,100395.25
2017-12-02T00:49:36.213Z,100395.28
2017-12-02T00:52:02.573Z,100398.84
2017-12-02T00:54:28.903Z,100400.55
2017-12-02T00:56:55.928Z,100410.62
2017-12-02T00:59:22.205Z,100411.11
2017-12-02T01:01:48.504Z,100418.31
2017-12-02T01:04:14.813Z,100425.94
2017-12-02T01:06:41.058Z,100432.66
2017-12-02T01:09:07.389Z,100426.47
2017-12-02T01:11:33.982Z,100423.45
2017-12-02T01:14:00.296Z,100428.30
2017-12-02T01:16:26.660Z,100436.35
2017-12-02T01:18:52.954Z,100440.40
2017-12-02T01:21:20.039Z,100446.78
2017-12-02T01:23:46.332Z,100446.36
2017-12-02T01:26:13.344Z,100450.72
2017-12-02T01:28:39.672Z,100458.81
2017-12-02T01:31:06.012Z,100450.80
2017-12-02T01:33:32.302Z,100455.63
2017-12-02T01:35:58.569Z,100456.61
2017-12-02T01:38:24.897Z,100457.17
2017-12-02T01:40:51.220Z,100457.66
2017-12-02T01:43:17.522Z,100450.82
2017-12-02T01:45:43.821Z,100463.20
2017-12-02T01:48:11.786Z,100460.30
2017-12-02T01:50:38.816Z,100456.64
2017-12-02T01:53:05.097Z,100460.02
2017-12-02T01:55:31.393Z,100457.37
2017-12-02T01:57:58.471Z,100463.11
2017-12-02T02:00:24.719Z,100463.58
2017-12-02T02:02:51.017Z,100459.67
2017-12-02T02:05:17.302Z,100460.54
2017-12-02T02:07:43.575Z,100466.14
2017-12-02T02:10:10.581Z,100473.94
2017-12-02T02:12:36.911Z,100482.20
2017-12-02T02:15:03.176Z,100485.42
2017-12-02T02:17:30.194Z,100482.35
2017-12-02T02:19:56.519Z,100475.48
2017-12-02T02:22:22.817Z,100480.37
2017-12-02T02:24:49.140Z,100476.16
2017-12-02T02:27:15.390Z,100481.14
2017-12-02T02:29:41.642Z,100495.63
2017-12-02T02:32:08.004Z,100484.28
2017-12-02T02:34:35.040Z,100485.08
2017-12-02T02:37:02.124Z,100468.98
2017-12-02T02:39:28.448Z,100487.31
2017-12-02T02:41:54.701Z,100471.22
2017-12-02T02:44:20.937Z,100487.94
2017-12-02T02:46:47.268Z,100486.24
2017-12-02T02:49:13.581Z,100491.45
2017-12-02T02:51:39.868Z,100493.84
2017-12-02T02:54:06.903Z,100488.52
2017-12-02T02:56:34.001Z,100491.25
2017-12-02T02:59:00.428Z,100497.38
2017-12-02T03:01:26.711Z,100496.44
2017-12-02T03:03:53.011Z,100497.58
2017-12-02T03:06:19.288Z,100494.41
2017-12-02T03:08:45.573Z,100499.17
2017-12-02T03:11:11.850Z,100500.74
2017-12-02T03:13:38.850Z,100502.97
2017-12-02T03:16:05.148Z,100510.44
2017-12-02T03:18:31.484Z,100507.00
2017-12-02T03:20:57.794Z,100510.81
2017-12-02T03:23:24.814Z,100514.34
2017-12-02T03:25:51.118Z,100508.70
2017-12-02T03:28:17.427Z,100510.28
2017-12-02T03:30:43.761Z,100511.08
2017-12-02T03:33:10.102Z,100512.70
2017-12-02T03:35:36.385Z,100515.92
2017-12-02T03:38:02.660Z,100512.82
2017-12-02T03:40:28.976Z,100518.63
2017-12-02T03:42:55.329Z,100516.94
2017-12-02T03:45:21.634Z,100529.13
2017-12-02T03:47:48.686Z,100533.89
2017-12-02T03:50:15.019Z,100533.39
2017-12-02T03:52:41.327Z,100539.17
2017-12-02T03:55:08.424Z,100542.45
2017-12-02T03:57:34.738Z,100544.79
2017-12-02T04:00:01.076Z,100550.16
2017-12-02T04:02:27.383Z,100544.26
2017-12-02T04:04:54.438Z,100550.91
2017-12-02T04:07:20.699Z,100553.50
2017-12-02T04:09:47.016Z,100555.65
2017-12-02T04:12:13.760Z,100554.03
2017-12-02T04:14:40.095Z,100554.48
2017-12-02T04:17:07.384Z,100557.98
2017-12-02T04:19:33.774Z,100564.23
2017-12-02T04:22:00.112Z,100562.70
2017-12-02T04:24:26.410Z,100567.66
2017-12-02T04:26:53.466Z,100571.58
2017-12-02T04:29:19.795Z,100573.09
2017-12-02T04:31:46.088Z,100569.34
2017-12-02T04:34:12.403Z,100580.48
2017-12-02T04:36:38.708Z,100582.33
2017-12-02T04:39:05.054Z,100573.92
2017-12-02T04:41:31.349Z,100582.69
2017-12-02T04:43:58.393Z,100585.59
2017-12-02T04:46:25.443Z,100583.38
2017-12-02T04:48:52.558Z,100587.26
2017-12-02T04:51:18.845Z,100586.95
2017-12-02T04:53:45.185Z,100589.66
2017-12-02T04:56:11.498Z,100587.41
2017-12-02T04:58:37.785Z,100589.11
2017-12-02T05:01:04.094Z,100594.34
2017-12-02T05:03:30.389Z,100594.86
2017-12-02T05:05:56.659Z,100602.02
2017-12-02T05:08:22.953Z,100606.52
2017-12-02T05:10:49.239Z,100602.78
2017-12-02T05:13:15.499Z,100606.69
2017-12-02T05:15:42.406Z,100613.84
2017-12-02T05:18:08.680Z,100610.17
2017-12-02T05:20:35.035Z,100618.09
2017-12-02T05:23:01.338Z,100611.91
2017-12-02T05:25:27.666Z,100614.42
2017-12-02T05:27:53.996Z,100615.52
2017-12-02T05:30:20.311Z,100613.87
2017-12-02T05:32:47.386Z,100621.61
2017-12-02T05:35:13.655Z,100621.14
2017-12-02T05:37:39.940Z,100628.55
2017-12-02T05:40:06.252Z,100624.55
2017-12-02T05:42:33.300Z,100626.80
2017-12-02T05:45:00.300Z,100618.62
2017-12-02T05:47:26.589Z,100621.62
2017-12-02T05:49:53.645Z,100630.51
2017-12-02T05:52:19.935Z,100626.70
2017-12-02T05:54:46.196Z,100632.09
2017-12-02T05:57:14.161Z,100640.82
2017-12-02T05:59:41.195Z,100640.33
2017-12-02T06:02:07.449Z,100643.05
2017-12-02T06:04:33.791Z,100642.48
2017-12-02T06:07:00.079Z,100641.78
2017-12-02T06:09:26.350Z,100654.05
2017-12-02T06:11:52.611Z,100655.92
2017-12-02T06:14:18.889Z,100655.08
2017-12-02T06:16:45.900Z,100654.55
2017-12-02T06:19:12.211Z,100656.04
2017-12-02T06:21:38.496Z,100651.50
2017-12-02T06:24:05.484Z,100656.56
2017-12-02T06:26:31.752Z,100654.23
2017-12-02T06:28:58.002Z,100658.95
2017-12-02T06:31:24.994Z,100661.05
2017-12-02T06:33:51.244Z,100651.61
2017-12-02T06:36:18.291Z,100655.31
2017-12-02T06:38:44.566Z,100658.45
2017-12-02T06:41:10.816Z,100663.64
2017-12-02T06:43:37.120Z,100663.39
2017-12-02T06:46:04.120Z,100667.98
2017-12-02T06:48:30.397Z,100669.77
2017-12-02T06:50:57.412Z,100673.63
2017-12-02T06:53:23.678Z,100673.31
2017-12-02T06:55:49.969Z,100669.52
2017-12-02T06:58:16.279Z,100676.09
2017-12-02T07:00:42.587Z,100679.59
2017-12-02T07:03:08.941Z,100680.80
2017-12-02T07:05:35.301Z,100679.87
2017-12-02T07:08:01.597Z,100678.81
2017-12-02T07:10:27.914Z,100686.23
2017-12-02T07:12:54.219Z,100685.67
2017-12-02T07:15:21.220Z,100693.70
2017-12-02T07:17:47.504Z,100688.80
2017-12-02T07:20:13.761Z,100688.06
2017-12-02T07:22:40.064Z,100693.84
2017-12-02T07:25:07.096Z,100690.36
2017-12-02T07:27:34.139Z,100693.44
2017-12-02T07:30:01.166Z,100697.41
2017-12-02T07:32:27.480Z,100696.22
2017-12-02T07:34:53.771Z,100703.28
2017-12-02T07:37:20.253Z,100706.09
2017-12-02T07:39:46.534Z,100708.37
2017-12-02T07:42:12.835Z,100711.81
2017-12-02T07:44:39.110Z,100712.99
2017-12-02T07:47:05.397Z,100717.95
2017-12-02T07:49:31.681Z,100715.73
2017-12-02T07:51:57.961Z,100717.45
2017-12-02T07:54:25.003Z,100723.35
2017-12-02T07:56:51.290Z,100730.86
2017-12-02T07:59:17.645Z,100728.14
2017-12-02T08:01:43.940Z,100722.14
2017-12-02T08:04:10.205Z,100722.80
2017-12-02T08:06:36.486Z,100729.98
2017-12-02T08:09:02.929Z,100729.90
2017-12-02T08:11:29.185Z,100730.83
2017-12-02T08:13:55.476Z,100731.41
2017-12-02T08:16:22.505Z,100734.38
2017-12-02T08:18:49.546Z,100739.56
2017-12-02T08:21:16.695Z,100732.85
2017-12-02T08:23:43.017Z,100734.64
2017-12-02T08:26:09.394Z,100741.39
2017-12-02T08:28:35.654Z,100740.76
2017-12-02T08:31:01.965Z,100744.45
2017-12-02T08:33:28.294Z,100751.27
2017-12-02T08:35:54.614Z,100753.83
2017-12-02T08:38:20.936Z,100752.84
2017-12-02T08:40:47.361Z,100745.67
2017-12-02T08:43:14.455Z,100761.81
2017-12-02T08:45:40.770Z,100764.86
2017-12-02T08:48:07.036Z,100762.13
2017-12-02T08:50:33.326Z,100768.22
2017-12-02T08:52:59.625Z,100768.81
2017-12-02T08:55:26.661Z,100774.92
2017-12-02T08:57:52.962Z,100777.30
2017-12-02T09:00:19.250Z,100780.73
2017-12-02T09:02:46.365Z,100782.37
2017-12-02T09:05:12.637Z,100788.42
2017-12-02T09:07:38.958Z,100786.92
2017-12-02T09:10:05.995Z,100797.88
2017-12-02T09:12:33.003Z,100791.23
2017-12-02T09:14:59.403Z,100791.19
2017-12-02T09:17:25.692Z,100796.16
2017-12-02T09:19:52.150Z,100799.71
2017-12-02T09:22:19.600Z,100798.04
2017-12-02T09:24:46.966Z,100801.20
2017-12-02T09:27:13.304Z,100806.39
2017-12-02T09:29:39.616Z,100800.61
2017-12-02T09:32:06.670Z,100797.76
2017-12-02T09:34:33.660Z,100800.89
2017-12-02T09:37:00.179Z,100793.91
2017-12-02T09:39:26.783Z,100802.91
2017-12-02T09:41:54.025Z,100803.70
2017-12-02T09:44:20.325Z,100800.56
2017-12-02T09:46:46.629Z,100801.77
2017-12-02T09:49:12.965Z,100787.03
2017-12-02T09:51:39.217Z,100793.52
2017-12-02T09:54:05.503Z,100793.84
2017-12-02T09:56:32.566Z,100790.21
2017-12-02T09:58:59.991Z,100784.39
2017-12-02T10:01:26.275Z,100789.66
2017-12-02T10:03:52.588Z,100792.69
2017-12-02T10:06:18.919Z,100792.19
2017-12-02T10:08:45.272Z,100787.67
2017-12-02T10:11:11.576Z,100786.27
2017-12-02T10:13:37.864Z,100788.17
2017-12-02T10:16:04.183Z,100779.59
2017-12-02T10:18:30.520Z,100792.97
2017-12-02T10:20:56.919Z,100795.73
2017-12-02T10:23:23.332Z,100786.02
2017-12-02T10:25:49.690Z,100790.56
2017-12-02T10:28:16.033Z,100788.36
2017-12-02T10:30:43.355Z,100782.59
2017-12-02T10:33:09.677Z,100788.64
2017-12-02T10:35:36.081Z,100787.34
2017-12-02T10:38:03.181Z,100782.30
2017-12-02T10:40:29.507Z,100780.94
2017-12-02T10:42:56.309Z,100782.21
2017-12-02T10:45:22.659Z,100783.70
2017-12-02T10:47:49.013Z,100785.24
2017-12-02T10:50:15.349Z,100781.73
2017-12-02T10:52:41.697Z,100784.25
2017-12-02T10:55:07.999Z,100776.78
2017-12-02T10:57:34.359Z,100778.99
2017-12-02T11:00:00.667Z,100773.59
2017-12-02T11:02:27.005Z,100770.09
2017-12-02T11:04:53.337Z,100762.84
2017-12-02T11:07:19.668Z,100776.34
2017-12-02T11:09:45.951Z,100764.80
2017-12-02T11:12:12.939Z,100766.56
2017-12-02T11:14:39.204Z,100775.22
2017-12-02T11:17:05.491Z,100765.69
2017-12-02T11:19:31.810Z,100763.77
2017-12-02T11:21:58.067Z,100770.48
2017-12-02T11:24:24.322Z,100769.91
2017-12-02T11:26:50.724Z,100772.49
2017-12-02T11:29:17.128Z,100766.13
2017-12-02T11:31:44.300Z,100767.78
2017-12-02T11:34:12.389Z,100765.61
2017-12-02T11:36:39.319Z,100769.90
2017-12-02T11:39:05.663Z,100768.06
2017-12-02T11:41:31.930Z,100774.22
2017-12-02T11:43:59.009Z,100769.90
2017-12-02T11:46:25.279Z,100760.32
2017-12-02T11:48:51.895Z,100767.27
2017-12-02T11:51:18.145Z,100771.68
2017-12-02T11:53:44.414Z,100766.30
2017-12-02T11:56:11.446Z,100769.55
2017-12-02T11:58:37.799Z,100768.61
2017-12-02T12:01:04.848Z,100761.19
2017-12-02T12:03:31.843Z,100763.89
2017-12-02T12:05:58.569Z,100769.52
2017-12-02T12:08:24.975Z,100770.23
2017-12-02T12:10:51.291Z,100772.42
2017-12-02T12:13:18.290Z,100767.04
2017-12-02T12:15:44.602Z,100765.11
2017-12-02T12:18:10.904Z,100760.43
2017-12-02T12:20:37.942Z,100764.75
2017-12-02T12:23:05.057Z,100754.66
2017-12-02T12:25:31.362Z,100756.55
2017-12-02T12:27:57.731Z,100755.75
2017-12-02T12:30:24.064Z,100747.33
2017-12-02T12:32:50.390Z,100757.79
2017-12-02T12:35:16.700Z,100742.85
2017-12-02T12:37:42.997Z,100737.79
2017-12-02T12:40:10.115Z,100743.44
2017-12-02T12:42:36.463Z,100742.58
2017-12-02T12:45:03.463Z,100738.70
2017-12-02T12:47:29.743Z,100742.36
2017-12-02T12:49:56.742Z,100738.20
2017-12-02T12:52:23.047Z,100743.70
2017-12-02T12:54:49.344Z,100744.12
2017-12-02T12:57:15.651Z,100740.52
2017-12-02T12:59:42.556Z,100737.78
2017-12-02T13:02:08.924Z,100736.29
2017-12-02T13:04:35.342Z,100734.33
2017-12-02T13:07:01.899Z,100706.69
2017-12-02T13:09:28.296Z,100744.70
2017-12-02T13:11:54.613Z,100740.12
2017-12-02T13:14:20.912Z,100750.42
2017-12-02T13:16:47.200Z,100749.94
2017-12-02T13:19:13.539Z,100749.27
2017-12-02T13:21:39.871Z,100749.59
2017-12-02T13:24:06.211Z,100751.39
2017-12-02T13:26:32.544Z,100763.24
2017-12-02T13:28:58.851Z,100755.75
2017-12-02T13:31:25.194Z,100764.17
2017-12-02T13:33:51.594Z,100771.22
2017-12-02T13:36:17.932Z,100765.10
2017-12-02T13:38:44.305Z,100768.53
2017-12-02T13:41:10.625Z,100773.55
2017-12-02T13:43:36.936Z,100768.38
2017-12-02T13:46:03.265Z,100772.56
2017-12-02T13:48:30.562Z,100764.15
2017-12-02T13:50:58.051Z,100770.92
2017-12-02T13:53:25.252Z,100764.11
2017-12-02T13:55:51.858Z,100758.58
2017-12-02T13:58:18.726Z,100768.12
2017-12-02T14:00:45.120Z,100769.94
2017-12-02T14:03:12.332Z,100770.20
2017-12-02T14:05:39.531Z,100775.61
2017-12-02T14:08:05.869Z,100769.38
2017-12-02T14:10:32.205Z,100773.14
2017-12-02T14:12:58.563Z,100769.72
2017-12-02T14:15:25.069Z,100776.50
2017-12-02T14:17:51.399Z,100784.38
2017-12-02T14:20:17.767Z,100778.77
2017-12-02T14:22:44.082Z,100779.73
2017-12-02T14:25:10.397Z,100773.59
2017-12-02T14:27:36.681Z,100771.84
2017-12-02T14:30:03.080Z,100781.74
2017-12-02T14:32:30.515Z,100780.81
2017-12-02T14:34:56.858Z,100784.92
2017-12-02T14:37:23.175Z,100784.77
2017-12-02T14:39:49.570Z,100784.50
2017-12-02T14:42:15.925Z,100785.05
2017-12-02T14:44:42.997Z,100782.91
2017-12-02T14:47:09.870Z,100791.56
2017-12-02T14:49:38.134Z,100785.85
2017-12-02T14:52:04.798Z,100781.15
2017-12-02T14:54:31.166Z,100778.67
2017-12-02T14:56:58.206Z,100779.70
2017-12-02T14:59:25.508Z,100783.09
2017-12-02T15:01:51.824Z,100783.92
2017-12-02T15:04:18.139Z,100781.59
2017-12-02T15:06:44.753Z,100788.03
2017-12-02T15:09:11.252Z,100787.02
2017-12-02T15:11:37.658Z,100795.51
2017-12-02T15:14:04.009Z,100793.78
2017-12-02T15:16:30.343Z,100785.27
2017-12-02T15:18:56.662Z,100795.31
2017-12-02T15:21:24.868Z,100801.78
2017-12-02T15:23:51.301Z,100800.94
2017-12-02T15:26:17.724Z,100803.67
2017-12-02T15:28:44.013Z,100805.08
2017-12-02T15:31:10.349Z,100802.56
2017-12-02T15:33:36.657Z,100808.55
2017-12-02T15:36:04.518Z,100811.55
2017-12-02T15:38:31.608Z,100805.95
2017-12-02T15:40:58.126Z,100810.63
2017-12-02T15:43:24.460Z,100809.45
2017-12-02T15:45:50.842Z,100807.59
2017-12-02T15:48:17.264Z,100806.56
2017-12-02T15:50:44.378Z,100806.06
2017-12-02T15:53:10.780Z,100811.62
2017-12-02T15:55:37.874Z,100813.70
2017-12-02T15:58:04.229Z,100813.43
2017-12-02T16:00:31.318Z,100814.00
2017-12-02T16:03:05.470Z,100804.66
2017-12-02T16:05:31.784Z,100814.86
2017-12-02T16:07:58.221Z,100805.71
2017-12-02T16:10:24.556Z,100809.20
2017-12-02T16:12:50.879Z,100807.48
2017-12-02T16:15:17.211Z,100809.73
2017-12-02T16:17:43.506Z,100800.72
2017-12-02T16:20:09.972Z,100813.20
2017-12-02T16:22:36.325Z,100808.55
2017-12-02T16:25:02.695Z,100813.59
2017-12-02T16:27:29.426Z,100808.80
2017-12-02T16:29:55.841Z,100809.56
2017-12-02T16:32:22.244Z,100809.97
2017-12-02T16:34:48.615Z,100809.13
2017-12-02T16:37:14.953Z,100809.20
2017-12-02T16:39:41.306Z,100806.25
2017-12-02T16:42:08.444Z,100815.03
2017-12-02T16:44:34.735Z,100817.38
2017-12-02T16:47:01.051Z,100822.05
2017-12-02T16:49:27.520Z,100821.05
2017-12-02T16:51:53.871Z,100822.44
2017-12-02T16:54:20.288Z,100827.59
2017-12-02T16:56:46.679Z,100829.53
2017-12-02T16:59:13.020Z,100825.48
2017-12-02T17:01:39.342Z,100824.11
2017-12-02T17:04:05.675Z,100829.73
2017-12-02T17:06:32.009Z,100836.80
2017-12-02T17:08:58.324Z,100837.11
2017-12-02T17:11:25.392Z,100840.48
2017-12-02T17:13:51.673Z,100838.36
2017-12-02T17:16:18.004Z,100837.84
2017-12-02T17:18:44.355Z,100837.59
2017-12-02T17:21:11.384Z,100839.11
2017-12-02T17:23:37.949Z,100812.45
2017-12-02T17:26:05.095Z,100841.86
2017-12-02T17:28:32.149Z,100836.30
2017-12-02T17:30:59.174Z,100840.42
2017-12-02T17:33:25.494Z,100837.53
2017-12-02T17:35:51.801Z,100835.77
2017-12-02T17:38:18.269Z,100830.77
2017-12-02T17:40:44.581Z,100835.54
2017-12-02T17:43:10.993Z,100838.02
2017-12-02T17:45:37.330Z,100832.07
2017-12-02T17:48:04.555Z,100838.19
2017-12-02T17:50:32.374Z,100838.56
2017-12-02T17:52:59.228Z,100837.66
2017-12-02T17:55:27.013Z,100838.03
2017-12-02T17:57:54.510Z,100830.23
2017-12-02T18:00:21.451Z,100839.48
2017-12-02T18:02:48.072Z,100831.05
2017-12-02T18:05:15.095Z,100840.16
2017-12-02T18:07:42.350Z,100840.78
2017-12-02T18:10:09.873Z,100848.87
2017-12-02T18:12:36.188Z,100845.88
2017-12-02T18:15:02.534Z,100844.25
2017-12-02T18:17:28.892Z,100841.19
2017-12-02T18:19:55.737Z,100835.84
2017-12-02T18:22:22.839Z,100840.00
2017-12-02T18:24:49.738Z,100845.31
2017-12-02T18:27:17.287Z,100838.09
2017-12-02T18:29:44.699Z,100837.43
2017-12-02T18:32:11.027Z,100835.48
2017-12-02T18:34:37.758Z,100847.48
2017-12-02T18:37:04.266Z,100841.91
2017-12-02T18:39:31.605Z,100841.22
2017-12-02T18:41:58.449Z,100844.83
2017-12-02T18:44:25.699Z,100849.69
2017-12-02T18:46:53.271Z,100846.65
2017-12-02T18:49:20.869Z,100853.98
2017-12-02T18:51:47.481Z,100853.58
2017-12-02T18:54:13.882Z,100854.76
2017-12-02T18:56:40.570Z,100853.58
2017-12-02T18:59:07.206Z,100849.91
2017-12-02T19:01:33.818Z,100851.03
2017-12-02T19:04:01.127Z,100847.53
2017-12-02T19:06:27.779Z,100851.45
2017-12-02T19:08:54.376Z,100850.38
2017-12-02T19:11:20.784Z,100851.13
2017-12-02T19:13:47.840Z,100846.09
2017-12-02T19:16:15.033Z,100853.38
2017-12-02T19:18:41.297Z,100859.83
2017-12-02T19:21:07.959Z,100853.42
2017-12-02T19:23:35.074Z,100852.31
2017-12-02T19:26:01.900Z,100852.06
2017-12-02T19:28:28.437Z,100853.83
2017-12-02T19:30:55.859Z,100845.78
2017-12-02T19:33:22.160Z,100851.46
2017-12-02T19:35:48.642Z,100852.12
2017-12-02T19:38:15.202Z,100851.78
2017-12-02T19:40:42.012Z,100852.95
2017-12-02T19:43:08.722Z,100857.62
2017-12-02T19:45:36.027Z,100853.20
2017-12-02T19:48:02.706Z,100855.35
2017-12-02T19:50:29.744Z,100850.14
2017-12-02T19:52:56.368Z,100857.74
2017-12-02T19:55:22.909Z,100858.66
2017-12-02T19:57:49.438Z,100853.36
2017-12-02T20:00:16.144Z,100846.41
2017-12-02T20:02:42.488Z,100851.69
2017-12-02T20:05:09.381Z,100849.06
2017-12-02T20:07:36.868Z,100854.15
2017-12-02T20:10:04.361Z,100862.66
2017-12-02T20:12:31.147Z,100858.91
2017-12-02T20:14:59.620Z,100855.89
2017-12-02T20:17:27.160Z,100859.74
2017-12-02T20:19:53.673Z,100852.89
2017-12-02T20:22:20.271Z,100854.39
2017-12-02T20:24:47.544Z,100847.17
2017-12-02T20:27:13.888Z,100842.61
2017-12-02T20:29:40.419Z,100842.94
2017-12-02T20:32:06.802Z,100841.67
2017-12-02T20:34:33.497Z,100842.05
2017-12-02T20:36:59.831Z,100843.03
2017-12-02T20:39:27.449Z,100841.28
2017-12-02T20:41:54.056Z,100848.36
2017-12-02T20:44:20.902Z,100848.51
2017-12-02T20:46:47.792Z,100843.94
2017-12-02T20:49:14.170Z,100842.59
2017-12-02T20:51:40.462Z,100848.30
2017-12-02T20:54:06.804Z,100848.79
2017-12-02T20:56:33.375Z,100846.09
2017-12-02T20:59:00.690Z,100844.05
2017-12-02T21:01:27.308Z,100839.96
2017-12-02T21:03:53.677Z,100838.89
2017-12-02T21:06:20.149Z,100837.13
2017-12-02T21:08:46.852Z,100837.73
2017-12-02T21:11:13.182Z,100837.91
2017-12-02T21:13:39.520Z,100836.97
2017-12-02T21:16:05.849Z,100836.78
2017-12-02T21:18:32.419Z,100836.17
2017-12-02T21:20:58.722Z,100834.65
2017-12-02T21:23:25.109Z,100829.34
2017-12-02T21:25:52.344Z,100834.78
2017-12-02T21:28:18.985Z,100831.66
2017-12-02T21:30:45.768Z,100828.73
2017-12-02T21:33:12.447Z,100824.77
2017-12-02T21:35:38.975Z,100830.42
2017-12-02T21:38:05.307Z,100825.86
2017-12-02T21:40:31.876Z,100822.03
2017-12-02T21:42:59.228Z,100826.09
2017-12-02T21:45:25.646Z,100827.28
2017-12-02T21:47:52.139Z,100826.10
2017-12-02T21:50:18.918Z,100818.75
2017-12-02T21:52:45.581Z,100828.78
2017-12-02T21:55:13.060Z,100821.05
2017-12-02T21:57:39.544Z,100821.76
2017-12-02T22:00:06.311Z,100817.47
2017-12-02T22:02:33.582Z,100821.42
2017-12-02T22:05:00.029Z,100821.85
2017-12-02T22:07:26.565Z,100809.23
2017-12-02T22:09:53.262Z,100822.05
2017-12-02T22:12:19.571Z,100819.50
2017-12-02T22:14:45.936Z,100818.86
2017-12-02T22:17:13.638Z,100817.84
2017-12-02T22:19:40.382Z,100817.91
2017-12-02T22:22:07.014Z,100815.66
2017-12-02T22:24:33.324Z,100812.28
2017-12-02T22:27:00.688Z,100812.03
2017-12-02T22:29:27.226Z,100816.37
2017-12-02T22:32:08.663Z,100812.80
2017-12-02T22:34:35.225Z,100815.49
2017-12-02T22:37:04.101Z,100813.16
2017-12-02T22:39:32.196Z,100812.92
2017-12-02T22:41:59.552Z,100809.56
2017-12-02T22:44:25.926Z,100811.88
2017-12-02T22:46:55.581Z,100811.15
2017-12-02T22:49:22.272Z,100806.05
2017-12-02T22:51:48.895Z,100807.02
2017-12-02T22:54:15.736Z,100802.97
2017-12-02T22:56:42.700Z,100804.89
2017-12-02T22:59:09.316Z,100800.09
2017-12-02T23:01:36.001Z,100800.92
2017-12-02T23:04:02.305Z,100805.61
2017-12-02T23:06:29.075Z,100809.61
2017-12-02T23:08:56.191Z,100805.02
2017-12-02T23:11:22.767Z,100806.86
2017-12-02T23:13:50.101Z,100805.00
2017-12-02T23:16:16.774Z,100801.83
2017-12-02T23:18:44.088Z,100804.83
2017-12-02T23:21:10.730Z,100809.77
2017-12-02T23:23:37.403Z,100805.05
2017-12-02T23:26:03.989Z,100804.73
2017-12-02T23:28:30.428Z,100812.62
2017-12-02T23:30:58.076Z,100803.30
2017-12-02T23:33:24.662Z,100801.91
2017-12-02T23:35:50.994Z,100804.40
2017-12-02T23:38:17.496Z,100802.78
2017-12-02T23:40:43.851Z,100803.27
2017-12-02T23:43:10.576Z,100803.16
2017-12-02T23:45:36.989Z,100801.05
2017-12-02T23:48:03.893Z,100798.14
2017-12-02T23:50:31.309Z,100797.77
2017-12-02T23:52:57.955Z,100798.98
2017-12-02T23:55:24.577Z,100791.44
2017-12-02T23:57:51.341Z,100791.09
